createdAt,value
2022-11-18T00:03:54.485Z,39
2022-11-18T00:09:11.544Z,38
2022-11-18T00:14:28.568Z,35
2022-11-18T00:19:45.600Z,36
2022-11-18T00:25:03.981Z,31
2022-11-18T00:30:20.444Z,35
2022-11-18T00:35:36.932Z,33
2022-11-18T00:40:53.405Z,30
2022-11-18T00:46:09.932Z,31
2022-11-18T00:51:27.237Z,31
2022-11-18T00:56:43.763Z,37
2022-11-18T01:02:00.214Z,33
2022-11-18T01:07:16.751Z,28
2022-11-18T01:12:33.138Z,29
2022-11-18T01:17:49.588Z,26
2022-11-18T01:23:06.067Z,23
2022-11-18T01:28:24.072Z,27
2022-11-18T01:33:39.047Z,22
2022-11-18T01:38:55.542Z,21
2022-11-18T01:44:11.966Z,22
2022-11-18T01:49:28.464Z,18
2022-11-18T01:54:44.955Z,17
2022-11-18T02:00:01.931Z,20
2022-11-18T02:05:18.350Z,17
2022-11-18T02:10:34.812Z,20
2022-11-18T02:15:51.261Z,18
2022-11-18T02:21:07.734Z,19
2022-11-18T02:26:24.203Z,19
2022-11-18T02:31:40.689Z,19
2022-11-18T02:36:56.891Z,19
2022-11-18T02:42:13.348Z,19
2022-11-18T02:47:29.843Z,21
2022-11-18T02:52:46.264Z,17
2022-11-18T02:58:02.741Z,23
2022-11-18T03:03:19.205Z,21
2022-11-18T03:08:35.609Z,22
2022-11-18T03:13:52.086Z,23
2022-11-18T03:19:08.574Z,20
2022-11-18T03:24:25.029Z,21
2022-11-18T03:29:41.489Z,19
2022-11-18T03:34:57.926Z,22
2022-11-18T03:40:14.601Z,18
2022-11-18T03:45:33.353Z,19
2022-11-18T03:50:47.338Z,17
2022-11-18T03:56:03.825Z,17
2022-11-18T04:01:20.357Z,18
2022-11-18T04:06:36.731Z,16
2022-11-18T04:11:53.173Z,16
2022-11-18T04:17:09.620Z,15
2022-11-18T04:22:26.061Z,14
2022-11-18T04:27:42.473Z,14
2022-11-18T04:32:58.922Z,11
2022-11-18T04:38:20.578Z,12
2022-11-18T04:43:31.847Z,10
2022-11-18T04:48:48.273Z,11
2022-11-18T04:54:04.749Z,9
2022-11-18T04:59:21.443Z,9
2022-11-18T05:04:37.636Z,11
2022-11-18T05:09:54.050Z,10
2022-11-18T05:15:10.503Z,10
2022-11-18T05:20:26.938Z,11
2022-11-18T05:25:43.401Z,12
2022-11-18T05:30:59.807Z,10
2022-11-18T05:36:16.277Z,13
2022-11-18T05:41:32.736Z,11
2022-11-18T05:46:49.147Z,11
2022-11-18T05:52:05.570Z,14
2022-11-18T05:57:22.054Z,12
2022-11-18T06:02:38.644Z,13
2022-11-18T06:07:54.920Z,14
2022-11-18T06:13:11.952Z,49
2022-11-18T06:18:28.212Z,36
2022-11-18T06:23:44.712Z,34
2022-11-18T06:29:01.761Z,40
2022-11-18T06:34:18.254Z,30
2022-11-18T06:39:34.756Z,30
2022-11-18T06:44:51.278Z,27
2022-11-18T06:50:07.743Z,26
2022-11-18T06:55:24.214Z,25
2022-11-18T07:00:40.701Z,22
2022-11-18T07:05:57.141Z,22
2022-11-18T07:11:13.616Z,20
2022-11-18T07:16:30.058Z,17
2022-11-18T07:21:46.524Z,18
2022-11-18T07:27:03.230Z,18
2022-11-18T07:32:19.726Z,19
2022-11-18T07:37:36.172Z,18
2022-11-18T07:42:52.626Z,16
2022-11-18T07:48:09.082Z,19
2022-11-18T07:53:25.642Z,20
2022-11-18T07:58:42.016Z,17
2022-11-18T08:03:58.467Z,15
2022-11-18T08:09:15.205Z,18
2022-11-18T08:14:31.404Z,21
2022-11-18T08:19:47.862Z,15
2022-11-18T08:25:04.300Z,16
2022-11-18T08:30:20.714Z,12
2022-11-18T08:35:37.132Z,13
2022-11-18T08:40:53.564Z,16
2022-11-18T08:46:10.060Z,12
2022-11-18T08:51:26.463Z,12
2022-11-18T08:56:42.967Z,11
2022-11-18T09:01:59.432Z,10
2022-11-18T09:07:15.890Z,16
2022-11-18T09:12:32.244Z,16
2022-11-18T09:17:48.714Z,13
2022-11-18T09:23:05.181Z,17
2022-11-18T09:28:21.639Z,17
2022-11-18T09:33:38.052Z,18
2022-11-18T09:38:54.494Z,17
2022-11-18T09:44:10.959Z,14
2022-11-18T09:49:27.461Z,16
2022-11-18T09:54:43.904Z,13
2022-11-18T10:00:01.776Z,13
2022-11-18T10:05:18.245Z,12
2022-11-18T10:10:34.690Z,12
2022-11-18T10:15:51.171Z,10
2022-11-18T10:21:07.623Z,12
2022-11-18T10:26:24.082Z,11
2022-11-18T10:31:40.540Z,8
2022-11-18T10:36:56.989Z,10
2022-11-18T10:42:13.577Z,7
2022-11-18T10:47:30.055Z,7
2022-11-18T10:52:46.507Z,7
2022-11-18T10:58:02.987Z,9
2022-11-18T11:03:19.383Z,6
2022-11-18T11:08:41.067Z,8
2022-11-18T11:13:52.313Z,8
2022-11-18T11:19:08.777Z,7
2022-11-18T11:24:25.208Z,8
2022-11-18T11:29:41.644Z,6
2022-11-18T11:34:58.042Z,7
2022-11-18T11:40:14.472Z,6
2022-11-18T11:45:30.939Z,6
2022-11-18T11:50:54.736Z,6
2022-11-18T11:56:03.515Z,7
2022-11-18T12:01:20.010Z,8
2022-11-18T12:06:36.449Z,8
2022-11-18T12:11:52.912Z,5
2022-11-18T12:17:09.345Z,2
2022-11-18T12:22:25.751Z,3
2022-11-18T12:27:42.218Z,2
2022-11-18T12:32:58.679Z,2
2022-11-18T12:38:15.140Z,3
2022-11-18T12:43:31.609Z,3
2022-11-18T12:48:48.042Z,2
2022-11-18T12:54:04.459Z,3
2022-11-18T12:59:20.898Z,4
2022-11-18T13:04:43.022Z,4
2022-11-18T13:09:53.797Z,4
2022-11-18T13:15:10.969Z,4
2022-11-18T13:20:27.396Z,3
2022-11-18T13:25:43.745Z,1
2022-11-18T13:31:00.226Z,0
2022-11-18T13:36:16.644Z,0
2022-11-18T13:41:33.196Z,0
2022-11-18T13:46:49.418Z,1
2022-11-18T13:52:05.865Z,1
2022-11-18T13:57:22.301Z,2
2022-11-18T14:02:38.718Z,0
2022-11-18T14:07:55.113Z,1
2022-11-18T14:13:11.508Z,1
2022-11-18T14:18:27.961Z,1
2022-11-18T14:23:44.394Z,2
2022-11-18T14:29:01.832Z,1
2022-11-18T14:34:18.284Z,2
2022-11-18T14:39:35.664Z,2
2022-11-18T14:44:51.858Z,2
2022-11-18T14:50:08.308Z,2
2022-11-18T14:55:25.457Z,4
2022-11-18T15:00:41.896Z,4
2022-11-18T15:05:58.322Z,3
2022-11-18T15:11:14.784Z,3
2022-11-18T15:16:31.422Z,3
2022-11-18T15:21:47.880Z,3
2022-11-18T15:27:04.314Z,5
2022-11-18T15:32:20.745Z,8
2022-11-18T15:37:37.879Z,6
2022-11-18T15:42:54.373Z,5
2022-11-18T15:48:10.789Z,8
2022-11-18T15:53:27.454Z,8
2022-11-18T15:58:43.903Z,12
2022-11-18T16:04:01.837Z,16
2022-11-18T16:09:18.654Z,19
2022-11-18T16:14:35.510Z,17
2022-11-18T16:19:51.972Z,17
2022-11-18T16:25:08.460Z,19
2022-11-18T16:30:25.136Z,20
2022-11-18T16:35:41.369Z,22
2022-11-18T16:41:03.070Z,23
2022-11-18T16:46:14.313Z,23
2022-11-18T16:51:30.801Z,26
2022-11-18T16:56:47.341Z,42
2022-11-18T17:02:04.228Z,48
2022-11-18T17:07:21.376Z,55
2022-11-18T17:12:37.794Z,58
2022-11-18T17:17:54.352Z,57
2022-11-18T17:23:11.433Z,61
2022-11-18T17:28:28.034Z,55
2022-11-18T17:33:44.390Z,51
2022-11-18T17:39:01.463Z,56
2022-11-18T17:44:18.319Z,49
2022-11-18T17:49:34.305Z,53
2022-11-18T17:54:50.729Z,46
2022-11-18T18:00:07.505Z,49
2022-11-18T18:05:24.102Z,51
2022-11-18T18:10:40.585Z,53
2022-11-18T18:15:57.065Z,54
2022-11-18T18:21:13.892Z,55
2022-11-18T18:26:31.931Z,58
2022-11-18T18:31:47.319Z,57
2022-11-18T18:37:03.593Z,53
2022-11-18T18:42:19.908Z,52
2022-11-18T18:47:36.446Z,42
2022-11-18T18:52:52.922Z,35
2022-11-18T18:58:09.669Z,38
2022-11-18T19:03:26.758Z,43
2022-11-18T19:08:43.997Z,36
2022-11-18T19:14:01.852Z,47
2022-11-18T19:19:18.298Z,47
2022-11-18T19:24:48.140Z,45
2022-11-18T19:29:51.257Z,44
2022-11-18T19:35:08.128Z,38
2022-11-18T19:40:24.641Z,36
2022-11-18T19:45:41.128Z,39
2022-11-18T19:50:57.650Z,41
2022-11-18T19:56:15.142Z,43
2022-11-18T20:01:31.687Z,37
2022-11-18T20:06:47.831Z,47
2022-11-18T20:12:04.114Z,44
2022-11-18T20:17:20.579Z,45
2022-11-18T20:22:37.111Z,44
2022-11-18T20:27:53.977Z,44
2022-11-18T20:33:10.444Z,42
2022-11-18T20:38:26.868Z,41
2022-11-18T20:43:43.612Z,40
2022-11-18T20:49:01.894Z,45
2022-11-18T20:54:18.964Z,45
2022-11-18T20:59:35.449Z,37
2022-11-18T21:04:51.949Z,35
2022-11-18T21:10:08.463Z,33
2022-11-18T21:15:24.966Z,33
2022-11-18T21:20:42.251Z,28
2022-11-18T21:25:58.657Z,35
2022-11-18T21:31:17.269Z,37
2022-11-18T21:36:31.664Z,37
2022-11-18T21:41:53.601Z,39
2022-11-18T21:47:04.666Z,36
2022-11-18T21:52:21.170Z,35
2022-11-18T21:57:37.663Z,37
2022-11-18T22:02:54.173Z,36
2022-11-18T22:08:10.679Z,31
2022-11-18T22:13:27.214Z,32
2022-11-18T22:18:43.482Z,36
2022-11-18T22:24:00.128Z,33
2022-11-18T22:29:16.957Z,30
2022-11-18T22:34:33.057Z,30
2022-11-18T22:39:49.512Z,35
2022-11-18T22:45:06.115Z,31
2022-11-18T22:50:22.651Z,24
2022-11-18T22:55:39.121Z,26
2022-11-18T23:00:55.550Z,27
2022-11-18T23:06:12.056Z,27
2022-11-18T23:11:28.523Z,26
2022-11-18T23:16:44.959Z,30
2022-11-18T23:22:03.309Z,24
2022-11-18T23:27:19.855Z,25
2022-11-18T23:32:36.325Z,24
2022-11-18T23:37:52.801Z,21
2022-11-18T23:43:09.268Z,22
2022-11-18T23:48:25.760Z,23
2022-11-18T23:53:42.220Z,22
2022-11-18T23:58:58.690Z,20
